sensor_id;sensor_type;location;lat;lon;timestamp;pressure;altitude;pressure_sealevel;temperature;humidity
13068;BME280;6600;51.362;6.686;2023-02-19T00:02:06;101358.41;;;11.49;100.00
13068;BME280;6600;51.362;6.686;2023-02-19T00:04:31;101356.75;;;11.48;100.00
13068;BME280;6600;51.362;6.686;2023-02-19T00:06:56;101351.19;;;11.43;100.00
13068;BME280;6600;51.362;6.686;2023-02-19T00:09:22;101353.06;;;11.36;100.00
13068;BME280;6600;51.362;6.686;2023-02-19T00:11:47;101357.16;;;11.32;100.00
13068;BME280;6600;51.362;6.686;2023-02-19T00:14:16;101353.47;;;11.33;100.00
13068;BME280;6600;51.362;6.686;2023-02-19T00:16:42;101355.09;;;11.34;100.00
13068;BME280;6600;51.362;6.686;2023-02-19T00:19:11;101348.09;;;11.33;100.00
13068;BME280;6600;51.362;6.686;2023-02-19T00:21:37;101332.78;;;11.21;100.00
13068;BME280;6600;51.362;6.686;2023-02-19T00:24:05;101333.84;;;11.26;100.00
13068;BME280;6600;51.362;6.686;2023-02-19T00:26:31;101339.81;;;11.28;100.00
13068;BME280;6600;51.362;6.686;2023-02-19T00:28:56;101332.81;;;11.27;100.00
13068;BME280;6600;51.362;6.686;2023-02-19T00:31:23;101339.00;;;11.28;100.00
13068;BME280;6600;51.362;6.686;2023-02-19T00:33:51;101333.22;;;11.24;100.00
13068;BME280;6600;51.362;6.686;2023-02-19T00:36:16;101330.31;;;11.19;100.00
13068;BME280;6600;51.362;6.686;2023-02-19T00:38:43;101328.66;;;11.25;100.00
13068;BME280;6600;51.362;6.686;2023-02-19T00:41:09;101338.19;;;11.27;100.00
13068;BME280;6600;51.362;6.686;2023-02-19T00:43:44;101329.09;;;11.28;100.00
13068;BME280;6600;51.362;6.686;2023-02-19T00:46:10;101323.13;;;11.26;100.00
13068;BME280;6600;51.362;6.686;2023-02-19T00:48:35;101321.03;;;11.22;100.00
13068;BME280;6600;51.362;6.686;2023-02-19T00:51:00;101325.56;;;11.21;100.00
13068;BME280;6600;51.362;6.686;2023-02-19T00:53:26;101320.63;;;11.18;100.00
13068;BME280;6600;51.362;6.686;2023-02-19T00:55:51;101322.91;;;11.28;100.00
13068;BME280;6600;51.362;6.686;2023-02-19T00:58:16;101320.44;;;11.26;100.00
13068;BME280;6600;51.362;6.686;2023-02-19T01:00:41;101327.47;;;11.27;100.00
13068;BME280;6600;51.362;6.686;2023-02-19T01:03:07;101329.31;;;11.20;100.00
13068;BME280;6600;51.362;6.686;2023-02-19T01:05:32;101326.63;;;11.20;100.00
13068;BME280;6600;51.362;6.686;2023-02-19T01:08:00;101326.63;;;11.27;100.00
13068;BME280;6600;51.362;6.686;2023-02-19T01:10:26;101327.03;;;11.24;100.00
13068;BME280;6600;51.362;6.686;2023-02-19T01:12:51;101313.00;;;11.28;100.00
13068;BME280;6600;51.362;6.686;2023-02-19T01:15:16;101327.47;;;11.27;100.00
13068;BME280;6600;51.362;6.686;2023-02-19T01:17:42;101316.31;;;11.30;100.00
13068;BME280;6600;51.362;6.686;2023-02-19T01:20:07;101323.94;;;11.27;100.00
13068;BME280;6600;51.362;6.686;2023-02-19T01:22:33;101322.09;;;11.27;100.00
13068;BME280;6600;51.362;6.686;2023-02-19T01:24:58;101324.97;;;11.32;100.00
13068;BME280;6600;51.362;6.686;2023-02-19T01:27:23;101323.31;;;11.31;100.00
13068;BME280;6600;51.362;6.686;2023-02-19T01:29:49;101320.22;;;11.28;100.00
13068;BME280;6600;51.362;6.686;2023-02-19T01:32:14;101324.97;;;11.32;100.00
13068;BME280;6600;51.362;6.686;2023-02-19T01:34:39;101326.00;;;11.25;100.00
13068;BME280;6600;51.362;6.686;2023-02-19T01:37:05;101322.28;;;11.26;100.00
13068;BME280;6600;51.362;6.686;2023-02-19T01:39:32;101326.41;;;11.22;100.00
13068;BME280;6600;51.362;6.686;2023-02-19T01:41:57;101323.31;;;11.18;100.00
13068;BME280;6600;51.362;6.686;2023-02-19T01:46:48;101316.28;;;11.17;100.00
13068;BME280;6600;51.362;6.686;2023-02-19T01:49:30;101331.16;;;11.26;100.00
13068;BME280;6600;51.362;6.686;2023-02-19T01:52:15;101327.22;;;11.22;100.00
13068;BME280;6600;51.362;6.686;2023-02-19T01:54:44;101328.25;;;11.28;100.00
13068;BME280;6600;51.362;6.686;2023-02-19T01:57:13;101327.47;;;11.27;100.00
13068;BME280;6600;51.362;6.686;2023-02-19T01:59:41;101325.81;;;11.26;100.00
13068;BME280;6600;51.362;6.686;2023-02-19T02:02:07;101326.41;;;11.28;100.00
13068;BME280;6600;51.362;6.686;2023-02-19T02:04:33;101334.03;;;11.31;100.00
13068;BME280;6600;51.362;6.686;2023-02-19T02:07:01;101332.00;;;11.33;100.00
13068;BME280;6600;51.362;6.686;2023-02-19T02:09:28;101340.03;;;11.33;100.00
13068;BME280;6600;51.362;6.686;2023-02-19T02:12:13;101341.06;;;11.32;100.00
13068;BME280;6600;51.362;6.686;2023-02-19T02:14:42;101342.91;;;11.25;100.00
13068;BME280;6600;51.362;6.686;2023-02-19T02:17:25;101341.06;;;11.26;100.00
13068;BME280;6600;51.362;6.686;2023-02-19T02:22:43;101340.66;;;11.29;100.00
13068;BME280;6600;51.362;6.686;2023-02-19T02:30:49;101342.72;;;11.33;100.00
13068;BME280;6600;51.362;6.686;2023-02-19T02:33:35;101341.50;;;11.36;100.00
13068;BME280;6600;51.362;6.686;2023-02-19T02:36:06;101345.19;;;11.35;100.00
13068;BME280;6600;51.362;6.686;2023-02-19T02:38:36;101339.41;;;11.31;100.00
13068;BME280;6600;51.362;6.686;2023-02-19T02:41:03;101342.72;;;11.33;100.00
13068;BME280;6600;51.362;6.686;2023-02-19T02:43:29;101341.50;;;11.42;100.00
13068;BME280;6600;51.362;6.686;2023-02-19T02:45:55;101334.88;;;11.38;100.00
13068;BME280;6600;51.362;6.686;2023-02-19T02:48:31;101331.16;;;11.39;100.00
13068;BME280;6600;51.362;6.686;2023-02-19T02:56:33;101344.34;;;11.34;100.00
13068;BME280;6600;51.362;6.686;2023-02-19T02:59:01;101341.47;;;11.29;100.00
13068;BME280;6600;51.362;6.686;2023-02-19T03:01:40;101343.56;;;11.27;100.00
13068;BME280;6600;51.362;6.686;2023-02-19T03:07:31;101354.28;;;11.27;100.00
13068;BME280;6600;51.362;6.686;2023-02-19T03:10:01;101351.78;;;11.26;100.00
13068;BME280;6600;51.362;6.686;2023-02-19T03:12:28;101358.81;;;11.27;100.00
13068;BME280;6600;51.362;6.686;2023-02-19T03:15:14;101370.59;;;11.32;100.00
13068;BME280;6600;51.362;6.686;2023-02-19T03:18:01;101359.66;;;11.27;100.00
13068;BME280;6600;51.362;6.686;2023-02-19T03:20:50;101370.34;;;11.21;100.00
13068;BME280;6600;51.362;6.686;2023-02-19T03:23:18;101376.13;;;11.24;100.00
13068;BME280;6600;51.362;6.686;2023-02-19T03:25:46;101366.66;;;11.28;100.00
13068;BME280;6600;51.362;6.686;2023-02-19T03:28:32;101376.13;;;11.24;100.00
13068;BME280;6600;51.362;6.686;2023-02-19T03:31:20;101381.50;;;11.24;100.00
13068;BME280;6600;51.362;6.686;2023-02-19T03:33:50;101370.56;;;11.26;100.00
13068;BME280;6600;51.362;6.686;2023-02-19T03:36:19;101368.72;;;11.26;100.00
13068;BME280;6600;51.362;6.686;2023-02-19T03:38:59;101379.88;;;11.23;100.00
13068;BME280;6600;51.362;6.686;2023-02-19T03:41:36;101382.75;;;11.28;100.00
13068;BME280;6600;51.362;6.686;2023-02-19T03:44:12;101375.34;;;11.30;100.00
13068;BME280;6600;51.362;6.686;2023-02-19T03:49:48;101394.72;;;11.32;100.00
13068;BME280;6600;51.362;6.686;2023-02-19T03:52:37;101388.94;;;11.22;100.00
13068;BME280;6600;51.362;6.686;2023-02-19T03:55:11;101391.63;;;11.35;100.00
13068;BME280;6600;51.362;6.686;2023-02-19T03:57:57;101398.44;;;11.31;100.00
13068;BME280;6600;51.362;6.686;2023-02-19T04:00:33;101400.50;;;11.29;100.00
13068;BME280;6600;51.362;6.686;2023-02-19T04:03:11;101400.09;;;11.32;100.00
13068;BME280;6600;51.362;6.686;2023-02-19T04:05:44;101414.53;;;11.31;100.00
13068;BME280;6600;51.362;6.686;2023-02-19T04:08:16;101418.47;;;11.35;100.00
13068;BME280;6600;51.362;6.686;2023-02-19T04:10:45;101411.66;;;11.26;100.00
13068;BME280;6600;51.362;6.686;2023-02-19T04:13:26;101416.78;;;11.28;100.00
13068;BME280;6600;51.362;6.686;2023-02-19T04:15:57;101417.19;;;11.18;100.00
13068;BME280;6600;51.362;6.686;2023-02-19T04:18:28;101420.69;;;11.19;100.00
13068;BME280;6600;51.362;6.686;2023-02-19T04:20:56;101426.66;;;11.14;100.00
13068;BME280;6600;51.362;6.686;2023-02-19T04:23:25;101433.06;;;11.13;100.00
13068;BME280;6600;51.362;6.686;2023-02-19T04:25:55;101433.47;;;11.10;100.00
13068;BME280;6600;51.362;6.686;2023-02-19T04:28:22;101435.94;;;11.11;100.00
13068;BME280;6600;51.362;6.686;2023-02-19T04:30:47;101436.97;;;11.10;100.00
13068;BME280;6600;51.362;6.686;2023-02-19T04:33:13;101438.84;;;11.10;100.00
13068;BME280;6600;51.362;6.686;2023-02-19T04:35:38;101447.25;;;11.07;100.00
13068;BME280;6600;51.362;6.686;2023-02-19T04:38:03;101445.63;;;11.06;100.00
13068;BME280;6600;51.362;6.686;2023-02-19T04:40:29;101452.19;;;10.97;100.00
13068;BME280;6600;51.362;6.686;2023-02-19T04:42:54;101449.91;;;10.94;100.00
13068;BME280;6600;51.362;6.686;2023-02-19T04:45:19;101456.25;;;10.86;100.00
13068;BME280;6600;51.362;6.686;2023-02-19T04:47:45;101455.66;;;10.91;100.00
13068;BME280;6600;51.362;6.686;2023-02-19T04:50:10;101460.81;;;10.86;100.00
13068;BME280;6600;51.362;6.686;2023-02-19T04:52:35;101464.28;;;10.86;100.00
13068;BME280;6600;51.362;6.686;2023-02-19T04:55:01;101467.19;;;10.85;100.00
13068;BME280;6600;51.362;6.686;2023-02-19T04:57:26;101468.25;;;10.97;100.00
13068;BME280;6600;51.362;6.686;2023-02-19T04:59:52;101471.34;;;10.94;100.00
13068;BME280;6600;51.362;6.686;2023-02-19T05:02:17;101472.16;;;10.88;100.00
13068;BME280;6600;51.362;6.686;2023-02-19T05:04:43;101477.16;;;10.97;100.00
13068;BME280;6600;51.362;6.686;2023-02-19T05:07:08;101483.94;;;10.93;100.00
13068;BME280;6600;51.362;6.686;2023-02-19T05:09:33;101475.09;;;10.93;100.00
13068;BME280;6600;51.362;6.686;2023-02-19T05:11:59;101478.78;;;10.92;100.00
13068;BME280;6600;51.362;6.686;2023-02-19T05:14:24;101486.97;;;10.84;100.00
13068;BME280;6600;51.362;6.686;2023-02-19T05:16:49;101487.84;;;10.91;100.00
13068;BME280;6600;51.362;6.686;2023-02-19T05:19:15;101491.31;;;10.85;100.00
13068;BME280;6600;51.362;6.686;2023-02-19T05:21:40;101504.28;;;10.81;100.00
13068;BME280;6600;51.362;6.686;2023-02-19T05:24:06;101499.34;;;10.78;100.00
13068;BME280;6600;51.362;6.686;2023-02-19T05:26:31;101508.81;;;10.81;100.00
13068;BME280;6600;51.362;6.686;2023-02-19T05:28:58;101508.81;;;10.81;100.00
13068;BME280;6600;51.362;6.686;2023-02-19T05:31:23;101507.81;;;10.82;100.00
13068;BME280;6600;51.362;6.686;2023-02-19T05:33:49;101514.59;;;10.78;100.00
13068;BME280;6600;51.362;6.686;2023-02-19T05:36:19;101519.94;;;10.78;100.00
13068;BME280;6600;51.362;6.686;2023-02-19T05:38:45;101512.75;;;10.78;100.00
13068;BME280;6600;51.362;6.686;2023-02-19T05:41:16;101514.81;;;10.83;100.00
13068;BME280;6600;51.362;6.686;2023-02-19T05:43:43;101523.66;;;10.77;100.00
13068;BME280;6600;51.362;6.686;2023-02-19T05:46:11;101524.72;;;10.82;100.00
13068;BME280;6600;51.362;6.686;2023-02-19T05:48:37;101530.66;;;10.78;100.00
13068;BME280;6600;51.362;6.686;2023-02-19T05:51:08;101528.81;;;10.78;100.00
13068;BME280;6600;51.362;6.686;2023-02-19T05:53:34;101532.69;;;10.76;100.00
13068;BME280;6600;51.362;6.686;2023-02-19T05:56:00;101531.84;;;10.69;100.00
13068;BME280;6600;51.362;6.686;2023-02-19T05:58:26;101530.22;;;10.74;100.00
13068;BME280;6600;51.362;6.686;2023-02-19T06:00:52;101537.66;;;10.72;100.00
13068;BME280;6600;51.362;6.686;2023-02-19T06:03:18;101533.88;;;10.67;100.00
13068;BME280;6600;51.362;6.686;2023-02-19T06:05:43;101536.81;;;10.72;100.00
13068;BME280;6600;51.362;6.686;2023-02-19T06:08:11;101539.66;;;10.63;100.00
13068;BME280;6600;51.362;6.686;2023-02-19T06:10:38;101545.88;;;10.71;100.00
13068;BME280;6600;51.362;6.686;2023-02-19T06:13:05;101547.16;;;10.75;100.00
13068;BME280;6600;51.362;6.686;2023-02-19T06:15:31;101545.03;;;10.70;100.00
13068;BME280;6600;51.362;6.686;2023-02-19T06:17:56;101548.69;;;10.62;100.00
13068;BME280;6600;51.362;6.686;2023-02-19T06:20:21;101552.00;;;10.58;100.00
13068;BME280;6600;51.362;6.686;2023-02-19T06:22:50;101549.97;;;10.67;100.00
13068;BME280;6600;51.362;6.686;2023-02-19T06:25:16;101553.63;;;10.59;100.00
13068;BME280;6600;51.362;6.686;2023-02-19T06:27:42;101555.25;;;10.53;100.00
13068;BME280;6600;51.362;6.686;2023-02-19T06:30:08;101563.66;;;10.50;100.00
13068;BME280;6600;51.362;6.686;2023-02-19T06:32:33;101575.41;;;10.49;100.00
13068;BME280;6600;51.362;6.686;2023-02-19T06:34:58;101571.09;;;10.55;100.00
13068;BME280;6600;51.362;6.686;2023-02-19T06:37:24;101575.91;;;10.59;100.00
13068;BME280;6600;51.362;6.686;2023-02-19T06:39:49;101570.94;;;10.56;100.00
13068;BME280;6600;51.362;6.686;2023-02-19T06:42:15;101576.69;;;10.53;100.00
13068;BME280;6600;51.362;6.686;2023-02-19T06:44:40;101574.66;;;10.62;100.00
13068;BME280;6600;51.362;6.686;2023-02-19T06:47:06;101590.69;;;10.55;100.00
13068;BME280;6600;51.362;6.686;2023-02-19T06:49:31;101578.34;;;10.54;100.00
13068;BME280;6600;51.362;6.686;2023-02-19T06:51:56;101583.94;;;10.59;100.00
13068;BME280;6600;51.362;6.686;2023-02-19T06:54:23;101599.84;;;10.61;100.00
13068;BME280;6600;51.362;6.686;2023-02-19T06:56:50;101599.19;;;10.59;100.00
13068;BME280;6600;51.362;6.686;2023-02-19T06:59:15;101608.44;;;10.56;100.00
13068;BME280;6600;51.362;6.686;2023-02-19T07:01:41;101619.59;;;10.60;100.00
13068;BME280;6600;51.362;6.686;2023-02-19T07:04:07;101621.72;;;10.64;100.00
13068;BME280;6600;51.362;6.686;2023-02-19T07:06:33;101625.84;;;10.67;100.00
13068;BME280;6600;51.362;6.686;2023-02-19T07:08:59;101631.41;;;10.65;100.00
13068;BME280;6600;51.362;6.686;2023-02-19T07:11:26;101632.81;;;10.61;100.00
13068;BME280;6600;51.362;6.686;2023-02-19T07:13:57;101630.31;;;10.60;100.00
13068;BME280;6600;51.362;6.686;2023-02-19T07:16:23;101624.97;;;10.60;100.00
13068;BME280;6600;51.362;6.686;2023-02-19T07:18:49;101631.16;;;10.60;100.00
13068;BME280;6600;51.362;6.686;2023-02-19T07:21:15;101636.13;;;10.63;100.00
13068;BME280;6600;51.362;6.686;2023-02-19T07:23:41;101650.53;;;10.62;100.00
13068;BME280;6600;51.362;6.686;2023-02-19T07:26:08;101656.78;;;10.70;100.00
13068;BME280;6600;51.362;6.686;2023-02-19T07:28:34;101665.03;;;10.68;100.00
13068;BME280;6600;51.362;6.686;2023-02-19T07:31:03;101661.59;;;10.74;100.00
13068;BME280;6600;51.362;6.686;2023-02-19T07:33:29;101669.56;;;10.68;100.00
13068;BME280;6600;51.362;6.686;2023-02-19T07:35:55;101681.63;;;10.57;100.00
13068;BME280;6600;51.362;6.686;2023-02-19T07:38:21;101680.28;;;10.68;100.00
13068;BME280;6600;51.362;6.686;2023-02-19T07:43:16;101687.31;;;10.69;100.00
13068;BME280;6600;51.362;6.686;2023-02-19T07:45:42;101688.06;;;10.62;100.00
13068;BME280;6600;51.362;6.686;2023-02-19T07:48:07;101695.47;;;10.60;100.00
13068;BME280;6600;51.362;6.686;2023-02-19T07:50:33;101697.16;;;10.61;100.00
13068;BME280;6600;51.362;6.686;2023-02-19T07:52:58;101701.34;;;10.71;100.00
13068;BME280;6600;51.362;6.686;2023-02-19T07:55:24;101708.09;;;10.67;100.00
13068;BME280;6600;51.362;6.686;2023-02-19T07:57:49;101701.72;;;10.68;100.00
13068;BME280;6600;51.362;6.686;2023-02-19T08:00:14;101708.94;;;10.67;100.00
13068;BME280;6600;51.362;6.686;2023-02-19T08:02:40;101715.81;;;10.76;100.00
13068;BME280;6600;51.362;6.686;2023-02-19T08:05:24;101717.31;;;10.79;100.00
13068;BME280;6600;51.362;6.686;2023-02-19T08:07:49;101725.34;;;10.79;100.00
13068;BME280;6600;51.362;6.686;2023-02-19T08:10:15;101731.16;;;10.82;100.00
13068;BME280;6600;51.362;6.686;2023-02-19T08:13:00;101729.94;;;10.85;100.00
13068;BME280;6600;51.362;6.686;2023-02-19T08:15:47;101739.44;;;10.87;100.00
13068;BME280;6600;51.362;6.686;2023-02-19T08:18:14;101735.31;;;10.85;100.00
13068;BME280;6600;51.362;6.686;2023-02-19T08:20:43;101739.88;;;10.91;100.00
13068;BME280;6600;51.362;6.686;2023-02-19T08:23:10;101741.50;;;10.85;100.00
13068;BME280;6600;51.362;6.686;2023-02-19T08:25:36;101742.44;;;10.78;100.00
13068;BME280;6600;51.362;6.686;2023-02-19T08:28:01;101747.31;;;10.89;100.00
13068;BME280;6600;51.362;6.686;2023-02-19T08:30:28;101745.56;;;10.81;100.00
13068;BME280;6600;51.362;6.686;2023-02-19T08:32:54;101751.38;;;10.85;100.00
13068;BME280;6600;51.362;6.686;2023-02-19T08:35:20;101744.34;;;10.84;100.00
13068;BME280;6600;51.362;6.686;2023-02-19T08:37:45;101742.84;;;10.96;100.00
13068;BME280;6600;51.362;6.686;2023-02-19T08:40:11;101737.97;;;11.06;100.00
13068;BME280;6600;51.362;6.686;2023-02-19T08:42:36;101734.44;;;11.05;100.00
13068;BME280;6600;51.362;6.686;2023-02-19T08:45:01;101744.97;;;11.07;100.00
13068;BME280;6600;51.362;6.686;2023-02-19T08:47:27;101747.03;;;11.05;100.00
13068;BME280;6600;51.362;6.686;2023-02-19T08:49:52;101757.13;;;11.03;100.00
13068;BME280;6600;51.362;6.686;2023-02-19T08:52:17;101754.16;;;11.19;100.00
13068;BME280;6600;51.362;6.686;2023-02-19T08:54:43;101756.44;;;11.22;100.00
13068;BME280;6600;51.362;6.686;2023-02-19T08:57:08;101762.31;;;11.32;100.00
13068;BME280;6600;51.362;6.686;2023-02-19T08:59:33;101759.63;;;11.32;100.00
13068;BME280;6600;51.362;6.686;2023-02-19T09:01:59;101763.72;;;11.28;100.00
13068;BME280;6600;51.362;6.686;2023-02-19T09:04:25;101755.03;;;11.26;100.00
13068;BME280;6600;51.362;6.686;2023-02-19T09:06:50;101762.84;;;11.21;100.00
13068;BME280;6600;51.362;6.686;2023-02-19T09:09:16;101769.88;;;11.22;100.00
13068;BME280;6600;51.362;6.686;2023-02-19T09:11:41;101776.53;;;11.05;100.00
13068;BME280;6600;51.362;6.686;2023-02-19T09:14:07;101782.97;;;11.10;100.00
13068;BME280;6600;51.362;6.686;2023-02-19T09:16:33;101788.78;;;11.14;100.00
13068;BME280;6600;51.362;6.686;2023-02-19T09:18:59;101794.59;;;11.18;100.00
13068;BME280;6600;51.362;6.686;2023-02-19T09:21:24;101797.09;;;11.19;100.00
13068;BME280;6600;51.362;6.686;2023-02-19T09:23:49;101800.41;;;11.21;100.00
13068;BME280;6600;51.362;6.686;2023-02-19T09:26:15;101800.41;;;11.21;100.00
13068;BME280;6600;51.362;6.686;2023-02-19T09:28:40;101812.28;;;11.12;100.00
13068;BME280;6600;51.362;6.686;2023-02-19T09:31:13;101819.72;;;11.10;100.00
13068;BME280;6600;51.362;6.686;2023-02-19T09:33:46;101822.75;;;11.07;100.00
13068;BME280;6600;51.362;6.686;2023-02-19T09:36:13;101823.03;;;11.12;100.00
13068;BME280;6600;51.362;6.686;2023-02-19T09:38:38;101817.16;;;11.02;100.00
13068;BME280;6600;51.362;6.686;2023-02-19T09:41:14;101803.47;;;10.97;100.00
13068;BME280;6600;51.362;6.686;2023-02-19T09:43:41;101805.63;;;10.87;100.00
13068;BME280;6600;51.362;6.686;2023-02-19T09:46:29;101814.06;;;10.84;100.00
13068;BME280;6600;51.362;6.686;2023-02-19T09:49:32;101804.63;;;10.88;100.00
13068;BME280;6600;51.362;6.686;2023-02-19T09:52:08;101819.44;;;10.84;100.00
13068;BME280;6600;51.362;6.686;2023-02-19T09:54:37;101822.00;;;10.92;100.00
13068;BME280;6600;51.362;6.686;2023-02-19T09:57:04;101826.66;;;11.04;100.00
13068;BME280;6600;51.362;6.686;2023-02-19T09:59:45;101827.94;;;11.30;100.00
13068;BME280;6600;51.362;6.686;2023-02-19T10:02:17;101846.81;;;11.43;100.00
13068;BME280;6600;51.362;6.686;2023-02-19T10:04:45;101843.56;;;11.47;100.00
13068;BME280;6600;51.362;6.686;2023-02-19T10:09:59;101868.63;;;11.54;100.00
13068;BME280;6600;51.362;6.686;2023-02-19T10:12:29;101887.78;;;11.51;100.00
13068;BME280;6600;51.362;6.686;2023-02-19T10:15:00;101893.53;;;11.48;100.00
13068;BME280;6600;51.362;6.686;2023-02-19T10:17:30;101880.38;;;11.53;100.00
13068;BME280;6600;51.362;6.686;2023-02-19T10:19:59;101875.22;;;11.58;100.00
13068;BME280;6600;51.362;6.686;2023-02-19T10:22:24;101868.34;;;11.49;100.00
13068;BME280;6600;51.362;6.686;2023-02-19T10:24:52;101887.00;;;11.57;100.00
13068;BME280;6600;51.362;6.686;2023-02-19T10:27:18;101895.31;;;11.62;100.00
13068;BME280;6600;51.362;6.686;2023-02-19T10:29:45;101893.16;;;11.51;100.00
13068;BME280;6600;51.362;6.686;2023-02-19T10:32:23;101905.31;;;11.47;100.00
13068;BME280;6600;51.362;6.686;2023-02-19T10:37:49;101914.47;;;11.38;100.00
13068;BME280;6600;51.362;6.686;2023-02-19T10:40:18;101915.25;;;11.32;100.00
13068;BME280;6600;51.362;6.686;2023-02-19T10:42:55;101919.16;;;11.30;100.00
13068;BME280;6600;51.362;6.686;2023-02-19T10:45:34;101918.94;;;11.31;100.00
13068;BME280;6600;51.362;6.686;2023-02-19T10:48:03;101918.44;;;11.21;100.00
13068;BME280;6600;51.362;6.686;2023-02-19T10:50:31;101926.75;;;11.26;100.00
13068;BME280;6600;51.362;6.686;2023-02-19T10:52:59;101936.59;;;11.19;100.00
13068;BME280;6600;51.362;6.686;2023-02-19T10:55:28;101933.19;;;11.32;100.00
13068;BME280;6600;51.362;6.686;2023-02-19T10:57:54;101934.94;;;11.39;100.00
13068;BME280;6600;51.362;6.686;2023-02-19T11:00:27;101937.25;;;11.42;100.00
13068;BME280;6600;51.362;6.686;2023-02-19T11:03:17;101936.00;;;11.45;100.00
13068;BME280;6600;51.362;6.686;2023-02-19T11:06:01;101939.91;;;11.42;100.00
13068;BME280;6600;51.362;6.686;2023-02-19T11:08:28;101935.50;;;11.35;100.00
13068;BME280;6600;51.362;6.686;2023-02-19T11:10:54;101946.69;;;11.38;100.00
13068;BME280;6600;51.362;6.686;2023-02-19T11:13:26;101949.72;;;11.50;100.00
13068;BME280;6600;51.362;6.686;2023-02-19T11:15:54;101952.38;;;11.50;100.00
13068;BME280;6600;51.362;6.686;2023-02-19T11:18:24;101951.31;;;11.44;100.00
13068;BME280;6600;51.362;6.686;2023-02-19T11:20:54;101947.53;;;11.39;100.00
13068;BME280;6600;51.362;6.686;2023-02-19T11:23:33;101956.28;;;11.26;100.00
13068;BME280;6600;51.362;6.686;2023-02-19T11:26:06;101956.00;;;11.21;100.00
13068;BME280;6600;51.362;6.686;2023-02-19T11:28:39;101952.91;;;11.03;100.00
13068;BME280;6600;51.362;6.686;2023-02-19T11:31:24;101954.94;;;11.01;100.00
13068;BME280;6600;51.362;6.686;2023-02-19T11:33:55;101943.84;;;11.04;100.00
13068;BME280;6600;51.362;6.686;2023-02-19T11:36:35;101930.34;;;10.97;100.00
13068;BME280;6600;51.362;6.686;2023-02-19T11:39:26;101939.84;;;11.00;100.00
13068;BME280;6600;51.362;6.686;2023-02-19T11:53:25;101934.81;;;11.47;100.00
13068;BME280;6600;51.362;6.686;2023-02-19T11:58:58;101931.25;;;11.61;100.00
13068;BME280;6600;51.362;6.686;2023-02-19T12:01:43;101929.97;;;11.57;100.00
13068;BME280;6600;51.362;6.686;2023-02-19T12:08:08;101929.19;;;11.63;100.00
13068;BME280;6600;51.362;6.686;2023-02-19T12:10:20;101928.28;;;11.56;100.00
13068;BME280;6600;51.362;6.686;2023-02-19T12:13:10;101939.69;;;11.80;100.00
13068;BME280;6600;51.362;6.686;2023-02-19T12:23:37;101954.19;;;12.06;100.00
13068;BME280;6600;51.362;6.686;2023-02-19T12:42:54;101961.00;;;11.66;100.00
13068;BME280;6600;51.362;6.686;2023-02-19T12:45:35;101953.78;;;11.67;100.00
13068;BME280;6600;51.362;6.686;2023-02-19T12:50:34;101959.34;;;11.65;100.00
13068;BME280;6600;51.362;6.686;2023-02-19T12:53:10;101958.72;;;11.63;100.00
13068;BME280;6600;51.362;6.686;2023-02-19T12:55:42;101954.34;;;11.62;100.00
13068;BME280;6600;51.362;6.686;2023-02-19T12:58:23;101951.06;;;11.60;100.00
13068;BME280;6600;51.362;6.686;2023-02-19T13:00:52;101960.00;;;11.68;100.00
13068;BME280;6600;51.362;6.686;2023-02-19T13:03:33;101962.25;;;11.64;100.00
13068;BME280;6600;51.362;6.686;2023-02-19T13:06:32;101952.34;;;11.64;100.00
13068;BME280;6600;51.362;6.686;2023-02-19T13:09:00;101957.69;;;11.64;100.00
13068;BME280;6600;51.362;6.686;2023-02-19T13:11:31;101961.47;;;11.70;100.00
13068;BME280;6600;51.362;6.686;2023-02-19T13:14:04;101962.69;;;11.68;100.00
13068;BME280;6600;51.362;6.686;2023-02-19T13:16:32;101968.44;;;11.64;100.00
13068;BME280;6600;51.362;6.686;2023-02-19T13:19:01;101968.56;;;11.56;100.00
13068;BME280;6600;51.362;6.686;2023-02-19T13:21:32;101964.72;;;11.65;100.00
13068;BME280;6600;51.362;6.686;2023-02-19T13:24:25;101963.91;;;11.65;100.00
13068;BME280;6600;51.362;6.686;2023-02-19T13:35:12;101969.72;;;11.69;100.00
13068;BME280;6600;51.362;6.686;2023-02-19T13:37:40;101975.91;;;11.69;100.00
13068;BME280;6600;51.362;6.686;2023-02-19T13:42:55;101970.63;;;11.76;100.00
13068;BME280;6600;51.362;6.686;2023-02-19T13:45:28;101977.28;;;11.80;100.00
13068;BME280;6600;51.362;6.686;2023-02-19T13:50:26;101978.94;;;11.81;100.00
13068;BME280;6600;51.362;6.686;2023-02-19T13:52:54;101986.31;;;11.72;100.00
13068;BME280;6600;51.362;6.686;2023-02-19T13:55:42;101985.94;;;11.75;100.00
13068;BME280;6600;51.362;6.686;2023-02-19T14:01:18;101998.06;;;11.71;100.00
13068;BME280;6600;51.362;6.686;2023-02-19T14:03:49;102006.41;;;11.61;100.00
13068;BME280;6600;51.362;6.686;2023-02-19T14:06:17;102014.25;;;11.63;100.00
13068;BME280;6600;51.362;6.686;2023-02-19T14:08:50;102019.44;;;11.64;100.00
13068;BME280;6600;51.362;6.686;2023-02-19T14:11:17;102016.69;;;11.58;100.00
13068;BME280;6600;51.362;6.686;2023-02-19T14:18:52;102023.63;;;11.52;100.00
13068;BME280;6600;51.362;6.686;2023-02-19T14:21:46;102030.06;;;11.51;100.00
13068;BME280;6600;51.362;6.686;2023-02-19T14:24:13;102038.09;;;11.51;100.00
13068;BME280;6600;51.362;6.686;2023-02-19T14:26:39;102038.22;;;11.43;100.00
13068;BME280;6600;51.362;6.686;2023-02-19T14:29:11;102033.59;;;11.37;100.00
13068;BME280;6600;51.362;6.686;2023-02-19T14:31:39;102032.50;;;11.32;100.00
13068;BME280;6600;51.362;6.686;2023-02-19T14:36:55;102042.00;;;11.34;100.00
13068;BME280;6600;51.362;6.686;2023-02-19T14:39:28;102035.38;;;11.30;100.00
13068;BME280;6600;51.362;6.686;2023-02-19T14:41:57;102043.50;;;11.37;100.00
13068;BME280;6600;51.362;6.686;2023-02-19T14:44:27;102043.56;;;11.43;100.00